createdAt,value
2023-05-03T00:00:32.616Z,7.21
2023-05-03T00:02:59.628Z,7.00
2023-05-03T00:05:26.917Z,7.06
2023-05-03T00:07:53.713Z,7.03
2023-05-03T00:10:20.723Z,7.09
2023-05-03T00:12:47.600Z,7.07
2023-05-03T00:15:14.470Z,7.00
2023-05-03T00:17:41.416Z,6.92
2023-05-03T00:20:08.890Z,6.96
2023-05-03T00:22:36.387Z,7.04
2023-05-03T00:25:03.322Z,7.03
2023-05-03T00:27:30.157Z,6.94
2023-05-03T00:29:56.952Z,7.03
2023-05-03T00:32:23.972Z,7.06
2023-05-03T00:34:57.382Z,7.10
2023-05-03T00:37:24.911Z,7.06
2023-05-03T00:39:52.296Z,7.02
2023-05-03T00:42:19.362Z,7.01
2023-05-03T00:44:46.276Z,6.95
2023-05-03T00:47:13.221Z,7.05
2023-05-03T00:49:40.242Z,6.98
2023-05-03T00:52:07.347Z,6.98
2023-05-03T00:54:35.488Z,6.99
2023-05-03T00:57:02.743Z,6.75
2023-05-03T00:59:29.707Z,6.88
2023-05-03T01:01:56.578Z,6.94
2023-05-03T01:04:23.855Z,6.92
2023-05-03T01:07:15.779Z,6.93
2023-05-03T01:09:53.353Z,6.96
2023-05-03T01:12:20.421Z,6.85
2023-05-03T01:15:11.826Z,6.87
2023-05-03T01:18:29.512Z,6.96
2023-05-03T01:20:57.638Z,6.90
2023-05-03T01:23:41.434Z,6.86
2023-05-03T01:26:22.157Z,6.88
2023-05-03T01:28:50.555Z,6.78
2023-05-03T01:31:22.934Z,6.83
2023-05-03T01:34:14.536Z,6.78
2023-05-03T01:36:44.446Z,6.69
2023-05-03T01:39:20.342Z,6.65
2023-05-03T01:41:50.310Z,6.69
2023-05-03T01:44:20.155Z,6.65
2023-05-03T01:46:47.946Z,6.37
2023-05-03T01:49:15.242Z,6.47
2023-05-03T01:51:42.153Z,6.57
2023-05-03T01:54:09.655Z,6.58
2023-05-03T01:56:36.999Z,6.52
2023-05-03T01:59:04.549Z,6.75
2023-05-03T02:01:31.493Z,6.87
2023-05-03T02:03:58.523Z,6.89
2023-05-03T02:06:26.320Z,7.03
2023-05-03T02:08:53.672Z,6.88
2023-05-03T02:11:21.742Z,7.06
2023-05-03T02:13:50.788Z,6.99
2023-05-03T02:16:18.804Z,7.03
2023-05-03T02:18:45.670Z,7.13
2023-05-03T02:21:13.872Z,7.05
2023-05-03T02:23:40.695Z,7.17
2023-05-03T02:26:08.153Z,7.15
2023-05-03T02:28:35.260Z,7.08
2023-05-03T02:31:03.056Z,7.16
2023-05-03T02:33:31.346Z,7.09
2023-05-03T02:35:58.141Z,7.16
2023-05-03T02:38:24.954Z,7.12
2023-05-03T02:40:51.758Z,7.05
2023-05-03T02:43:18.561Z,7.01
2023-05-03T02:45:45.544Z,7.12
2023-05-03T02:48:13.349Z,6.98
2023-05-03T02:50:42.242Z,7.01
2023-05-03T02:53:10.000Z,6.93
2023-05-03T02:55:37.478Z,7.02
2023-05-03T02:58:04.445Z,6.98
2023-05-03T03:00:32.262Z,6.95
2023-05-03T03:02:59.660Z,6.93
2023-05-03T03:05:28.275Z,6.96
2023-05-03T03:07:55.227Z,6.91
2023-05-03T03:10:22.189Z,7.02
2023-05-03T03:12:49.341Z,6.97
2023-05-03T03:15:26.225Z,7.05
2023-05-03T03:17:58.018Z,6.99
2023-05-03T03:20:26.283Z,7.00
2023-05-03T03:22:53.254Z,7.08
2023-05-03T03:25:21.478Z,6.97
2023-05-03T03:27:49.422Z,7.03
2023-05-03T03:30:16.983Z,7.03
2023-05-03T03:33:16.417Z,7.22
2023-05-03T03:35:44.654Z,7.06
2023-05-03T03:38:12.579Z,7.07
2023-05-03T03:40:47.681Z,7.11
2023-05-03T03:43:14.542Z,7.09
2023-05-03T03:45:41.886Z,7.25
2023-05-03T03:48:11.660Z,7.14
2023-05-03T03:50:38.703Z,7.12
2023-05-03T03:53:06.718Z,7.24
2023-05-03T03:55:33.971Z,7.28
2023-05-03T03:58:01.565Z,7.17
2023-05-03T04:00:29.212Z,7.16
2023-05-03T04:03:07.835Z,7.31
2023-05-03T04:05:35.649Z,7.27
2023-05-03T04:08:03.043Z,7.33
2023-05-03T04:10:32.879Z,7.26
2023-05-03T04:12:59.777Z,7.32
2023-05-03T04:15:27.169Z,7.36
2023-05-03T04:17:57.921Z,7.40
2023-05-03T04:20:25.558Z,7.54
2023-05-03T04:22:53.581Z,7.37
2023-05-03T04:25:25.757Z,7.42
2023-05-03T04:27:59.181Z,7.43
2023-05-03T04:30:27.563Z,7.46
2023-05-03T04:32:58.646Z,7.33
2023-05-03T04:35:26.987Z,7.28
2023-05-03T04:37:54.180Z,7.30
2023-05-03T04:40:23.732Z,7.28
2023-05-03T04:42:59.615Z,7.39
2023-05-03T04:45:28.627Z,7.42
2023-05-03T04:47:56.794Z,7.46
2023-05-03T04:50:23.696Z,7.54
2023-05-03T04:52:51.671Z,7.44
2023-05-03T04:55:20.545Z,7.44
2023-05-03T04:57:47.928Z,7.41
2023-05-03T05:00:16.081Z,7.51
2023-05-03T05:02:48.338Z,7.49
2023-05-03T05:05:18.199Z,7.57
2023-05-03T05:07:47.624Z,7.63
2023-05-03T05:10:16.862Z,7.71
2023-05-03T05:12:44.445Z,7.66
2023-05-03T05:15:11.706Z,7.72
2023-05-03T05:17:39.736Z,7.62
2023-05-03T05:20:12.546Z,7.74
2023-05-03T05:22:44.235Z,7.87
2023-05-03T05:25:11.144Z,7.86
2023-05-03T05:27:39.840Z,7.76
2023-05-03T05:30:07.661Z,7.78
2023-05-03T05:32:35.331Z,7.89
2023-05-03T05:35:02.539Z,7.93
2023-05-03T05:37:29.451Z,7.91
2023-05-03T05:39:59.809Z,7.86
2023-05-03T05:42:32.010Z,8.11
2023-05-03T05:44:58.950Z,8.05
2023-05-03T05:47:26.135Z,8.11
2023-05-03T05:49:56.250Z,8.14
2023-05-03T05:52:23.189Z,8.25
2023-05-03T05:54:50.018Z,8.24
2023-05-03T05:57:17.377Z,8.19
2023-05-03T05:59:44.238Z,8.21
2023-05-03T06:02:16.785Z,8.20
2023-05-03T06:04:46.977Z,8.31
2023-05-03T06:07:15.182Z,8.57
2023-05-03T06:09:42.687Z,8.35
2023-05-03T06:12:11.125Z,8.37
2023-05-03T06:14:51.635Z,8.46
2023-05-03T06:17:23.547Z,8.46
2023-05-03T06:19:50.716Z,8.52
2023-05-03T06:22:19.269Z,8.58
2023-05-03T06:24:46.298Z,8.54
2023-05-03T06:27:13.220Z,8.60
2023-05-03T06:29:40.606Z,8.65
2023-05-03T06:32:07.722Z,8.78
2023-05-03T06:34:34.588Z,8.65
2023-05-03T06:37:01.869Z,8.75
2023-05-03T06:39:28.732Z,8.74
2023-05-03T06:41:55.569Z,8.81
2023-05-03T06:44:25.925Z,8.86
2023-05-03T06:46:52.996Z,8.90
2023-05-03T06:49:20.115Z,8.98
2023-05-03T06:51:46.910Z,8.99
2023-05-03T06:54:14.775Z,9.05
2023-05-03T06:56:41.645Z,9.09
2023-05-03T06:59:08.478Z,9.24
2023-05-03T07:01:35.364Z,9.19
2023-05-03T07:04:02.222Z,9.22
2023-05-03T07:06:30.695Z,9.22
2023-05-03T07:09:00.220Z,9.28
2023-05-03T07:11:27.040Z,9.22
2023-05-03T07:13:54.682Z,9.31
2023-05-03T07:16:22.030Z,9.25
2023-05-03T07:18:49.421Z,9.10
2023-05-03T07:21:16.458Z,9.22
2023-05-03T07:23:44.721Z,9.21
2023-05-03T07:26:11.620Z,9.34
2023-05-03T07:28:38.367Z,9.51
2023-05-03T07:31:05.235Z,9.46
2023-05-03T07:33:34.833Z,9.56
2023-05-03T07:36:01.730Z,9.62
2023-05-03T07:38:28.596Z,9.66
2023-05-03T07:40:55.942Z,9.83
2023-05-03T07:43:23.789Z,9.63
2023-05-03T07:45:50.887Z,9.71
2023-05-03T07:48:17.777Z,9.78
2023-05-03T07:50:45.268Z,9.76
2023-05-03T07:53:12.654Z,9.91
2023-05-03T07:55:39.506Z,9.84
2023-05-03T07:58:06.357Z,10.07
2023-05-03T08:00:33.345Z,10.06
2023-05-03T08:03:01.614Z,10.09
2023-05-03T08:05:28.580Z,10.11
2023-05-03T08:07:55.403Z,10.25
2023-05-03T08:10:22.440Z,10.34
2023-05-03T08:12:49.324Z,10.36
2023-05-03T08:15:16.208Z,10.31
2023-05-03T08:17:44.729Z,10.32
2023-05-03T08:20:12.637Z,10.38
2023-05-03T08:22:40.600Z,10.45
2023-05-03T08:25:07.816Z,10.51
2023-05-03T08:27:37.523Z,10.88
2023-05-03T08:30:05.240Z,10.73
2023-05-03T08:32:32.673Z,10.78
2023-05-03T08:34:59.535Z,11.04
2023-05-03T08:37:26.472Z,11.20
2023-05-03T08:39:53.351Z,11.16
2023-05-03T08:42:20.169Z,11.02
2023-05-03T08:44:48.654Z,11.03
2023-05-03T08:47:17.145Z,11.04
2023-05-03T08:49:44.768Z,11.15
2023-05-03T08:52:13.249Z,11.11
2023-05-03T08:54:40.473Z,11.24
2023-05-03T08:57:16.664Z,11.33
2023-05-03T08:59:54.347Z,11.44
2023-05-03T09:02:21.713Z,11.49
2023-05-03T09:04:48.769Z,11.57
2023-05-03T09:07:20.492Z,11.63
2023-05-03T09:09:47.639Z,11.63
2023-05-03T09:12:33.666Z,11.63
2023-05-03T09:15:01.130Z,11.48
2023-05-03T09:17:27.894Z,11.61
2023-05-03T09:19:56.963Z,11.46
2023-05-03T09:22:27.138Z,11.65
2023-05-03T09:24:58.700Z,11.65
2023-05-03T09:27:26.572Z,11.65
2023-05-03T09:29:55.590Z,11.78
2023-05-03T09:32:23.069Z,11.85
2023-05-03T09:34:50.015Z,11.76
2023-05-03T09:37:16.994Z,11.91
2023-05-03T09:39:45.882Z,12.15
2023-05-03T09:42:16.312Z,12.08
2023-05-03T09:44:52.016Z,12.32
2023-05-03T09:47:18.924Z,12.19
2023-05-03T09:49:45.883Z,12.38
2023-05-03T09:52:13.346Z,12.37
2023-05-03T09:54:40.979Z,12.51
2023-05-03T09:57:08.888Z,12.45
2023-05-03T09:59:37.799Z,12.72
2023-05-03T10:02:07.698Z,12.60
2023-05-03T10:04:44.616Z,12.73
2023-05-03T10:07:17.788Z,12.66
2023-05-03T10:09:47.430Z,13.01
2023-05-03T10:12:17.797Z,12.89
2023-05-03T10:14:46.941Z,13.17
2023-05-03T10:17:43.614Z,13.08
2023-05-03T10:20:35.736Z,13.33
2023-05-03T10:23:06.212Z,13.38
2023-05-03T10:25:34.806Z,13.44
2023-05-03T10:28:06.720Z,13.51
2023-05-03T10:30:34.978Z,13.73
2023-05-03T10:33:28.957Z,13.71
2023-05-03T10:35:56.266Z,13.51
2023-05-03T10:38:25.071Z,13.87
2023-05-03T10:40:53.103Z,13.97
2023-05-03T10:43:29.424Z,13.92
2023-05-03T10:45:59.963Z,14.03
2023-05-03T10:48:28.565Z,14.19
2023-05-03T10:50:56.514Z,14.06
2023-05-03T10:53:41.286Z,14.15
2023-05-03T10:56:12.958Z,14.20
2023-05-03T10:58:56.686Z,14.26
2023-05-03T11:01:27.200Z,14.11
2023-05-03T11:04:14.126Z,14.11
2023-05-03T11:06:46.352Z,13.97
2023-05-03T11:09:14.960Z,13.77
2023-05-03T11:11:43.530Z,13.93
2023-05-03T11:14:11.647Z,13.89
2023-05-03T11:16:47.411Z,14.17
2023-05-03T11:19:15.541Z,14.07
2023-05-03T11:21:43.059Z,14.21
2023-05-03T11:24:10.293Z,14.32
2023-05-03T11:26:37.998Z,14.35
2023-05-03T11:29:05.283Z,14.23
2023-05-03T11:31:32.714Z,14.32
2023-05-03T11:33:59.954Z,14.38
2023-05-03T11:36:28.022Z,14.41
2023-05-03T11:38:55.001Z,14.38
2023-05-03T11:41:21.754Z,14.53
2023-05-03T11:43:54.893Z,14.42
2023-05-03T11:46:28.360Z,14.59
2023-05-03T11:48:56.293Z,14.64
2023-05-03T11:51:24.005Z,14.74
2023-05-03T11:53:51.621Z,14.94
2023-05-03T11:56:22.916Z,14.92
2023-05-03T11:58:59.757Z,15.09
2023-05-03T12:01:28.157Z,14.94
2023-05-03T12:03:59.833Z,15.04
2023-05-03T12:06:32.131Z,15.12
2023-05-03T12:09:01.470Z,15.16
2023-05-03T12:11:31.684Z,15.05
2023-05-03T12:14:02.478Z,15.07
2023-05-03T12:16:46.636Z,15.09
2023-05-03T12:19:24.025Z,15.19
2023-05-03T12:22:04.587Z,15.18
2023-05-03T12:24:39.400Z,15.61
2023-05-03T12:27:08.695Z,15.89
2023-05-03T12:29:35.950Z,15.94
2023-05-03T12:32:04.414Z,16.10
2023-05-03T12:34:35.555Z,16.07
2023-05-03T12:37:10.304Z,16.33
2023-05-03T12:39:40.152Z,16.59
2023-05-03T12:42:08.823Z,16.55
2023-05-03T12:44:43.080Z,16.56
2023-05-03T12:47:11.259Z,16.40
2023-05-03T12:49:39.461Z,16.33
2023-05-03T12:52:35.498Z,16.33
2023-05-03T12:54:55.941Z,16.65
2023-05-03T12:57:30.673Z,16.69
2023-05-03T13:00:02.674Z,16.73
2023-05-03T13:05:01.606Z,16.86
2023-05-03T13:07:31.634Z,16.87
2023-05-03T13:12:31.066Z,16.90
2023-05-03T13:14:58.119Z,17.23
2023-05-03T13:17:25.507Z,17.29
2023-05-03T13:19:53.298Z,17.15
2023-05-03T13:22:20.181Z,17.14
2023-05-03T13:24:48.075Z,17.32
2023-05-03T13:27:16.004Z,17.40
2023-05-03T13:29:42.942Z,17.60
2023-05-03T13:32:10.032Z,17.62
2023-05-03T13:34:37.598Z,17.46
2023-05-03T13:37:04.761Z,17.71
2023-05-03T13:39:32.347Z,17.25
2023-05-03T13:41:59.385Z,17.29
2023-05-03T13:44:26.332Z,17.17
2023-05-03T13:46:53.816Z,17.26
2023-05-03T13:49:21.072Z,17.36
2023-05-03T13:51:48.351Z,17.62
2023-05-03T13:54:15.141Z,17.65
2023-05-03T13:56:43.306Z,17.44
2023-05-03T13:59:12.480Z,17.16
2023-05-03T14:01:40.399Z,17.38
2023-05-03T14:04:07.584Z,17.47
2023-05-03T14:06:34.556Z,17.27
2023-05-03T14:09:02.004Z,17.02
2023-05-03T14:11:30.614Z,16.84
2023-05-03T14:13:58.856Z,16.92
2023-05-03T14:16:40.089Z,16.82
2023-05-03T14:19:11.218Z,16.61
2023-05-03T14:21:38.761Z,16.30
2023-05-03T14:24:06.754Z,16.08
2023-05-03T14:26:37.165Z,16.08
2023-05-03T14:29:04.305Z,15.76
2023-05-03T14:31:32.000Z,15.81
2023-05-03T14:34:00.132Z,15.68
2023-05-03T14:36:35.010Z,15.52
2023-05-03T14:39:05.123Z,15.27
2023-05-03T14:41:35.177Z,15.28
2023-05-03T14:44:02.279Z,15.46
2023-05-03T14:46:29.221Z,15.66
2023-05-03T14:48:56.219Z,15.47
2023-05-03T14:51:23.776Z,15.32
2023-05-03T14:53:50.876Z,15.22
2023-05-03T14:56:17.937Z,14.83
2023-05-03T14:58:44.805Z,14.69
2023-05-03T15:01:21.436Z,14.66
2023-05-03T15:03:48.771Z,14.47
2023-05-03T15:06:16.780Z,14.61
2023-05-03T15:08:43.738Z,14.62
2023-05-03T15:11:10.686Z,14.56
2023-05-03T15:13:37.511Z,14.66
2023-05-03T15:16:04.487Z,14.71
2023-05-03T15:18:31.458Z,14.71
2023-05-03T15:20:58.297Z,14.96
2023-05-03T15:23:25.264Z,14.93
2023-05-03T15:25:52.151Z,14.83
2023-05-03T15:28:19.030Z,14.85
2023-05-03T15:30:45.917Z,14.97
2023-05-03T15:33:12.964Z,15.20
2023-05-03T15:35:40.747Z,15.22
2023-05-03T15:38:13.473Z,15.33
2023-05-03T15:40:40.832Z,15.54
2023-05-03T15:43:07.671Z,15.70
2023-05-03T15:45:35.281Z,15.92
2023-05-03T15:48:02.881Z,16.21
2023-05-03T15:50:30.194Z,16.38
2023-05-03T15:52:57.322Z,16.18
2023-05-03T15:55:24.194Z,16.00
2023-05-03T15:57:53.252Z,16.14
2023-05-03T16:00:23.650Z,16.42
2023-05-03T16:02:50.621Z,16.81
2023-05-03T16:05:19.206Z,16.90
2023-05-03T16:07:46.909Z,16.73
2023-05-03T16:10:15.083Z,16.07
2023-05-03T16:12:42.977Z,15.95
2023-05-03T16:15:10.690Z,15.93
2023-05-03T16:17:37.649Z,15.67
2023-05-03T16:20:05.856Z,15.40
2023-05-03T16:22:32.993Z,15.24
2023-05-03T16:24:59.750Z,14.77
2023-05-03T16:27:26.671Z,14.88
2023-05-03T16:29:54.389Z,14.68
2023-05-03T16:32:21.375Z,14.67
2023-05-03T16:34:50.229Z,14.41
2023-05-03T16:37:17.764Z,14.24
2023-05-03T16:39:44.756Z,14.08
2023-05-03T16:42:12.209Z,14.07
2023-05-03T16:44:39.124Z,14.31
2023-05-03T16:47:06.544Z,14.24
2023-05-03T16:49:34.505Z,14.18
2023-05-03T16:52:02.017Z,14.04
2023-05-03T16:54:28.863Z,13.75
2023-05-03T16:56:56.036Z,13.58
2023-05-03T16:59:22.929Z,13.79
2023-05-03T17:01:50.019Z,14.01
2023-05-03T17:04:16.907Z,13.36
2023-05-03T17:06:43.960Z,13.26
2023-05-03T17:09:11.008Z,13.06
2023-05-03T17:11:37.830Z,12.90
2023-05-03T17:14:04.774Z,12.65
2023-05-03T17:16:31.973Z,12.57
2023-05-03T17:18:58.917Z,12.43
2023-05-03T17:21:25.734Z,12.26
2023-05-03T17:23:52.797Z,12.17
2023-05-03T17:26:21.508Z,12.11
2023-05-03T17:28:48.716Z,12.20
2023-05-03T17:31:15.718Z,12.39
2023-05-03T17:33:42.558Z,12.10
2023-05-03T17:36:09.400Z,12.12
2023-05-03T17:38:36.672Z,12.07
2023-05-03T17:41:07.726Z,11.83
2023-05-03T17:43:38.181Z,12.07
2023-05-03T17:46:12.778Z,12.08
2023-05-03T17:48:46.840Z,11.99
2023-05-03T17:51:13.960Z,11.77
2023-05-03T17:53:42.400Z,11.92
2023-05-03T17:56:14.077Z,12.00
2023-05-03T17:58:41.329Z,11.96
2023-05-03T18:01:10.378Z,11.86
2023-05-03T18:03:38.010Z,11.80
2023-05-03T18:06:08.220Z,11.65
2023-05-03T18:08:36.600Z,11.66
2023-05-03T18:11:03.475Z,11.67
2023-05-03T18:13:33.397Z,11.64
2023-05-03T18:16:00.795Z,11.47
2023-05-03T18:18:27.751Z,11.32
2023-05-03T18:21:00.988Z,11.35
2023-05-03T18:23:28.193Z,11.19
2023-05-03T18:25:55.000Z,11.24
2023-05-03T18:28:22.823Z,11.28
2023-05-03T18:30:52.851Z,11.19
2023-05-03T18:33:20.045Z,11.07
2023-05-03T18:35:51.109Z,11.21
2023-05-03T18:38:20.237Z,11.08
2023-05-03T18:40:48.196Z,10.86
2023-05-03T18:43:15.117Z,10.97
2023-05-03T18:45:42.071Z,10.90
2023-05-03T18:48:09.071Z,10.93
2023-05-03T18:50:38.439Z,10.93
2023-05-03T18:53:06.309Z,10.94
2023-05-03T18:55:33.146Z,11.01
2023-05-03T18:58:00.765Z,10.75
2023-05-03T19:00:27.917Z,10.77
2023-05-03T19:02:54.832Z,10.76
2023-05-03T19:05:21.731Z,10.76
2023-05-03T19:07:48.850Z,10.75
2023-05-03T19:10:17.142Z,10.70
2023-05-03T19:12:44.619Z,10.72
2023-05-03T19:15:12.199Z,10.74
2023-05-03T19:17:42.165Z,10.79
2023-05-03T19:20:10.449Z,10.73
2023-05-03T19:22:37.587Z,10.67
2023-05-03T19:25:05.433Z,10.58
2023-05-03T19:27:32.843Z,10.58
2023-05-03T19:30:00.421Z,10.63
2023-05-03T19:32:27.337Z,10.68
2023-05-03T19:34:54.313Z,10.60
2023-05-03T19:37:21.498Z,10.62
2023-05-03T19:39:48.332Z,10.68
2023-05-03T19:42:15.281Z,10.50
2023-05-03T19:44:42.423Z,10.33
2023-05-03T19:47:09.528Z,10.49
2023-05-03T19:49:36.613Z,10.45
2023-05-03T19:52:05.998Z,10.44
2023-05-03T19:54:33.343Z,10.50
2023-05-03T19:57:06.137Z,10.52
2023-05-03T19:59:33.703Z,10.46
2023-05-03T20:02:00.712Z,10.37
2023-05-03T20:04:27.725Z,10.37
2023-05-03T20:06:54.511Z,10.43
2023-05-03T20:09:23.553Z,10.42
2023-05-03T20:11:56.543Z,10.36
2023-05-03T20:14:23.535Z,10.28
2023-05-03T20:16:50.276Z,10.31
2023-05-03T20:19:17.483Z,10.18
2023-05-03T20:21:44.873Z,10.12
2023-05-03T20:24:11.729Z,10.16
2023-05-03T20:26:38.834Z,10.10
2023-05-03T20:29:05.906Z,10.03
2023-05-03T20:31:33.294Z,10.08
2023-05-03T20:34:00.705Z,10.07
2023-05-03T20:36:28.097Z,10.10
2023-05-03T20:38:55.971Z,10.07
2023-05-03T20:41:23.669Z,9.93
2023-05-03T20:43:55.035Z,10.06
2023-05-03T20:46:22.058Z,10.07
2023-05-03T20:48:48.922Z,10.02
2023-05-03T20:51:15.896Z,10.10
2023-05-03T20:53:42.701Z,10.04
2023-05-03T20:56:09.746Z,10.04
2023-05-03T20:58:36.932Z,10.10
2023-05-03T21:01:04.375Z,10.01
2023-05-03T21:03:31.991Z,10.02
2023-05-03T21:05:59.244Z,9.95
2023-05-03T21:08:26.511Z,9.94
2023-05-03T21:10:53.872Z,9.94
2023-05-03T21:13:20.929Z,9.97
2023-05-03T21:15:47.825Z,10.04
2023-05-03T21:18:14.624Z,9.91
2023-05-03T21:20:41.512Z,9.98
2023-05-03T21:23:08.416Z,10.06
2023-05-03T21:25:35.310Z,9.80
2023-05-03T21:28:02.196Z,9.81
2023-05-03T21:30:29.026Z,9.76
2023-05-03T21:32:56.084Z,9.74
2023-05-03T21:35:22.927Z,9.76
2023-05-03T21:37:50.045Z,9.68
2023-05-03T21:40:17.141Z,9.70
2023-05-03T21:42:44.234Z,9.82
2023-05-03T21:45:12.312Z,9.77
2023-05-03T21:47:40.223Z,9.73
2023-05-03T21:50:08.116Z,9.59
2023-05-03T21:52:36.703Z,9.74
2023-05-03T21:55:04.245Z,9.52
2023-05-03T21:57:33.036Z,9.72
2023-05-03T22:00:00.047Z,9.68
2023-05-03T22:02:27.170Z,9.55
2023-05-03T22:04:54.073Z,9.64
2023-05-03T22:07:20.913Z,9.56
2023-05-03T22:09:48.505Z,9.49
2023-05-03T22:14:45.808Z,9.59
2023-05-03T22:17:12.706Z,9.62
2023-05-03T22:19:39.485Z,9.42
2023-05-03T22:22:06.774Z,9.54
2023-05-03T22:24:33.559Z,9.59
2023-05-03T22:27:00.456Z,9.51
2023-05-03T22:29:27.309Z,9.41
2023-05-03T22:31:54.322Z,9.42
2023-05-03T22:34:21.267Z,9.49
2023-05-03T22:36:48.158Z,9.47
2023-05-03T22:39:15.838Z,9.33
2023-05-03T22:41:42.687Z,9.34
2023-05-03T22:44:09.590Z,9.49
2023-05-03T22:46:36.445Z,9.50
2023-05-03T22:49:04.021Z,9.41
2023-05-03T22:51:31.915Z,9.34
2023-05-03T22:53:58.753Z,9.21
2023-05-03T22:56:25.528Z,9.29
2023-05-03T22:58:52.341Z,9.36
2023-05-03T23:01:19.423Z,9.37
2023-05-03T23:03:46.520Z,9.31
2023-05-03T23:06:14.445Z,9.21
2023-05-03T23:08:41.355Z,9.02
2023-05-03T23:11:08.318Z,9.15
2023-05-03T23:13:35.315Z,9.22
2023-05-03T23:16:02.326Z,9.18
2023-05-03T23:18:29.191Z,9.15
2023-05-03T23:20:56.129Z,9.11
2023-05-03T23:23:23.815Z,9.14
2023-05-03T23:25:50.768Z,9.14
2023-05-03T23:28:17.824Z,9.06
2023-05-03T23:30:45.438Z,9.13
2023-05-03T23:33:13.135Z,9.09
2023-05-03T23:35:41.609Z,9.12
2023-05-03T23:38:08.563Z,9.12
2023-05-03T23:40:35.765Z,9.07
2023-05-03T23:43:02.573Z,9.05
2023-05-03T23:45:29.662Z,9.13
2023-05-03T23:47:56.768Z,9.15
2023-05-03T23:50:23.584Z,9.11
2023-05-03T23:52:50.688Z,9.14
2023-05-03T23:55:17.634Z,9.00
2023-05-03T23:57:44.538Z,9.04
